sensor_id;sensor_type;location;lat;lon;timestamp;P1;durP1;ratioP1;P2;durP2;ratioP2
20140;SDS011;10231;47.702;9.826;2022-08-27T00:02:01;3.73;;;3.47;;
20140;SDS011;10231;47.702;9.826;2022-08-27T00:04:27;4.20;;;3.90;;
20140;SDS011;10231;47.702;9.826;2022-08-27T00:06:53;4.30;;;3.90;;
20140;SDS011;10231;47.702;9.826;2022-08-27T00:09:18;4.30;;;4.00;;
20140;SDS011;10231;47.702;9.826;2022-08-27T00:11:44;4.30;;;4.00;;
20140;SDS011;10231;47.702;9.826;2022-08-27T00:14:10;4.37;;;4.07;;
20140;SDS011;10231;47.702;9.826;2022-08-27T00:16:36;3.80;;;3.60;;
20140;SDS011;10231;47.702;9.826;2022-08-27T00:19:02;4.23;;;3.93;;
20140;SDS011;10231;47.702;9.826;2022-08-27T00:21:28;4.53;;;4.13;;
20140;SDS011;10231;47.702;9.826;2022-08-27T00:23:54;4.13;;;3.90;;
20140;SDS011;10231;47.702;9.826;2022-08-27T00:26:19;4.40;;;4.00;;
20140;SDS011;10231;47.702;9.826;2022-08-27T00:28:45;4.00;;;3.70;;
20140;SDS011;10231;47.702;9.826;2022-08-27T00:31:11;4.03;;;3.73;;
20140;SDS011;10231;47.702;9.826;2022-08-27T00:33:38;4.13;;;3.83;;
20140;SDS011;10231;47.702;9.826;2022-08-27T00:36:04;4.27;;;3.97;;
20140;SDS011;10231;47.702;9.826;2022-08-27T00:38:31;4.20;;;3.90;;
20140;SDS011;10231;47.702;9.826;2022-08-27T00:40:57;4.00;;;3.70;;
20140;SDS011;10231;47.702;9.826;2022-08-27T00:43:25;4.17;;;3.87;;
20140;SDS011;10231;47.702;9.826;2022-08-27T00:45:54;4.23;;;3.93;;
20140;SDS011;10231;47.702;9.826;2022-08-27T00:48:26;4.20;;;3.90;;
20140;SDS011;10231;47.702;9.826;2022-08-27T00:50:55;4.23;;;3.93;;
20140;SDS011;10231;47.702;9.826;2022-08-27T00:53:23;4.13;;;3.80;;
20140;SDS011;10231;47.702;9.826;2022-08-27T00:56:02;3.93;;;3.67;;
20140;SDS011;10231;47.702;9.826;2022-08-27T00:58:41;4.43;;;4.13;;
20140;SDS011;10231;47.702;9.826;2022-08-27T01:01:10;4.03;;;3.83;;
20140;SDS011;10231;47.702;9.826;2022-08-27T01:03:39;4.50;;;4.20;;
20140;SDS011;10231;47.702;9.826;2022-08-27T01:06:08;4.33;;;4.03;;
20140;SDS011;10231;47.702;9.826;2022-08-27T01:08:36;4.60;;;4.20;;
20140;SDS011;10231;47.702;9.826;2022-08-27T01:11:04;4.43;;;4.03;;
20140;SDS011;10231;47.702;9.826;2022-08-27T01:13:31;4.13;;;3.83;;
20140;SDS011;10231;47.702;9.826;2022-08-27T01:15:58;4.07;;;3.70;;
20140;SDS011;10231;47.702;9.826;2022-08-27T01:18:25;4.27;;;3.87;;
20140;SDS011;10231;47.702;9.826;2022-08-27T01:21:03;4.40;;;4.10;;
20140;SDS011;10231;47.702;9.826;2022-08-27T01:26:53;4.57;;;4.13;;
20140;SDS011;10231;47.702;9.826;2022-08-27T01:29:19;5.07;;;4.67;;
20140;SDS011;10231;47.702;9.826;2022-08-27T01:31:45;5.20;;;4.80;;
20140;SDS011;10231;47.702;9.826;2022-08-27T01:34:10;4.87;;;4.40;;
20140;SDS011;10231;47.702;9.826;2022-08-27T01:36:36;4.87;;;4.57;;
20140;SDS011;10231;47.702;9.826;2022-08-27T01:39:01;5.20;;;4.80;;
20140;SDS011;10231;47.702;9.826;2022-08-27T01:41:27;5.17;;;4.77;;
20140;SDS011;10231;47.702;9.826;2022-08-27T01:43:53;5.23;;;4.80;;
20140;SDS011;10231;47.702;9.826;2022-08-27T01:46:22;5.87;;;5.37;;
20140;SDS011;10231;47.702;9.826;2022-08-27T01:48:49;5.20;;;4.83;;
20140;SDS011;10231;47.702;9.826;2022-08-27T01:51:15;4.67;;;4.27;;
20140;SDS011;10231;47.702;9.826;2022-08-27T01:53:41;5.00;;;4.60;;
20140;SDS011;10231;47.702;9.826;2022-08-27T01:56:06;4.70;;;4.30;;
20140;SDS011;10231;47.702;9.826;2022-08-27T01:58:32;5.13;;;4.67;;
20140;SDS011;10231;47.702;9.826;2022-08-27T02:00:59;4.47;;;4.03;;
20140;SDS011;10231;47.702;9.826;2022-08-27T02:03:28;5.07;;;4.67;;
20140;SDS011;10231;47.702;9.826;2022-08-27T02:05:53;4.80;;;4.40;;
20140;SDS011;10231;47.702;9.826;2022-08-27T02:08:19;5.20;;;4.80;;
20140;SDS011;10231;47.702;9.826;2022-08-27T02:10:46;5.00;;;4.70;;
20140;SDS011;10231;47.702;9.826;2022-08-27T02:13:12;4.67;;;4.27;;
20140;SDS011;10231;47.702;9.826;2022-08-27T02:15:39;4.67;;;4.27;;
20140;SDS011;10231;47.702;9.826;2022-08-27T02:18:06;4.40;;;4.00;;
20140;SDS011;10231;47.702;9.826;2022-08-27T02:20:33;5.07;;;4.40;;
20140;SDS011;10231;47.702;9.826;2022-08-27T02:22:59;4.87;;;4.47;;
20140;SDS011;10231;47.702;9.826;2022-08-27T02:25:26;4.83;;;4.30;;
20140;SDS011;10231;47.702;9.826;2022-08-27T02:27:52;5.20;;;4.70;;
20140;SDS011;10231;47.702;9.826;2022-08-27T02:30:19;4.60;;;4.20;;
20140;SDS011;10231;47.702;9.826;2022-08-27T02:32:47;4.97;;;4.60;;
20140;SDS011;10231;47.702;9.826;2022-08-27T02:35:14;5.53;;;5.03;;
20140;SDS011;10231;47.702;9.826;2022-08-27T02:37:41;4.70;;;4.30;;
20140;SDS011;10231;47.702;9.826;2022-08-27T02:40:08;5.53;;;5.03;;
20140;SDS011;10231;47.702;9.826;2022-08-27T02:42:38;5.07;;;4.67;;
20140;SDS011;10231;47.702;9.826;2022-08-27T02:45:04;5.43;;;5.03;;
20140;SDS011;10231;47.702;9.826;2022-08-27T02:47:32;4.90;;;4.50;;
20140;SDS011;10231;47.702;9.826;2022-08-27T02:49:58;5.53;;;5.10;;
20140;SDS011;10231;47.702;9.826;2022-08-27T02:52:25;5.80;;;5.30;;
20140;SDS011;10231;47.702;9.826;2022-08-27T02:54:51;5.70;;;5.20;;
20140;SDS011;10231;47.702;9.826;2022-08-27T02:57:17;5.27;;;4.87;;
20140;SDS011;10231;47.702;9.826;2022-08-27T02:59:43;5.63;;;5.10;;
20140;SDS011;10231;47.702;9.826;2022-08-27T03:02:09;5.30;;;4.90;;
20140;SDS011;10231;47.702;9.826;2022-08-27T03:04:35;5.17;;;4.77;;
20140;SDS011;10231;47.702;9.826;2022-08-27T03:07:00;5.60;;;5.10;;
20140;SDS011;10231;47.702;9.826;2022-08-27T03:09:26;5.10;;;4.70;;
20140;SDS011;10231;47.702;9.826;2022-08-27T03:11:51;5.40;;;5.00;;
20140;SDS011;10231;47.702;9.826;2022-08-27T03:14:17;5.47;;;5.07;;
20140;SDS011;10231;47.702;9.826;2022-08-27T03:16:43;5.73;;;5.33;;
20140;SDS011;10231;47.702;9.826;2022-08-27T03:19:09;5.27;;;4.87;;
20140;SDS011;10231;47.702;9.826;2022-08-27T03:21:34;6.03;;;5.53;;
20140;SDS011;10231;47.702;9.826;2022-08-27T03:24:01;5.33;;;4.93;;
20140;SDS011;10231;47.702;9.826;2022-08-27T03:26:28;5.83;;;5.20;;
20140;SDS011;10231;47.702;9.826;2022-08-27T03:28:54;6.23;;;5.73;;
20140;SDS011;10231;47.702;9.826;2022-08-27T03:31:20;5.27;;;4.87;;
20140;SDS011;10231;47.702;9.826;2022-08-27T03:33:58;5.97;;;5.47;;
20140;SDS011;10231;47.702;9.826;2022-08-27T03:36:25;5.53;;;5.13;;
20140;SDS011;10231;47.702;9.826;2022-08-27T03:38:53;4.67;;;4.37;;
20140;SDS011;10231;47.702;9.826;2022-08-27T03:41:19;5.33;;;4.93;;
20140;SDS011;10231;47.702;9.826;2022-08-27T03:43:46;5.60;;;5.10;;
20140;SDS011;10231;47.702;9.826;2022-08-27T03:46:12;5.17;;;4.67;;
20140;SDS011;10231;47.702;9.826;2022-08-27T03:48:38;5.67;;;5.27;;
20140;SDS011;10231;47.702;9.826;2022-08-27T03:51:07;6.63;;;6.03;;
20140;SDS011;10231;47.702;9.826;2022-08-27T03:53:36;7.53;;;6.83;;
20140;SDS011;10231;47.702;9.826;2022-08-27T03:56:04;7.50;;;6.80;;
20140;SDS011;10231;47.702;9.826;2022-08-27T03:58:30;6.93;;;6.40;;
20140;SDS011;10231;47.702;9.826;2022-08-27T04:00:56;8.07;;;6.77;;
20140;SDS011;10231;47.702;9.826;2022-08-27T04:03:22;7.13;;;6.53;;
20140;SDS011;10231;47.702;9.826;2022-08-27T04:05:51;8.13;;;7.43;;
20140;SDS011;10231;47.702;9.826;2022-08-27T04:08:18;8.53;;;7.83;;
20140;SDS011;10231;47.702;9.826;2022-08-27T04:10:44;9.43;;;8.53;;
20140;SDS011;10231;47.702;9.826;2022-08-27T04:13:10;9.73;;;8.40;;
20140;SDS011;10231;47.702;9.826;2022-08-27T04:15:35;9.50;;;8.60;;
20140;SDS011;10231;47.702;9.826;2022-08-27T04:18:05;8.97;;;8.07;;
20140;SDS011;10231;47.702;9.826;2022-08-27T04:20:31;8.53;;;7.83;;
20140;SDS011;10231;47.702;9.826;2022-08-27T04:22:56;8.07;;;7.37;;
20140;SDS011;10231;47.702;9.826;2022-08-27T04:25:22;8.10;;;7.40;;
20140;SDS011;10231;47.702;9.826;2022-08-27T04:27:48;6.97;;;6.37;;
20140;SDS011;10231;47.702;9.826;2022-08-27T04:30:14;6.80;;;6.20;;
20140;SDS011;10231;47.702;9.826;2022-08-27T04:32:39;6.10;;;5.57;;
20140;SDS011;10231;47.702;9.826;2022-08-27T04:35:05;5.83;;;5.33;;
20140;SDS011;10231;47.702;9.826;2022-08-27T04:37:31;7.73;;;6.87;;
20140;SDS011;10231;47.702;9.826;2022-08-27T04:39:57;8.17;;;7.47;;
20140;SDS011;10231;47.702;9.826;2022-08-27T04:42:23;8.37;;;7.67;;
20140;SDS011;10231;47.702;9.826;2022-08-27T04:44:49;6.97;;;6.47;;
20140;SDS011;10231;47.702;9.826;2022-08-27T04:47:17;7.00;;;6.40;;
20140;SDS011;10231;47.702;9.826;2022-08-27T04:49:44;7.20;;;6.60;;
20140;SDS011;10231;47.702;9.826;2022-08-27T04:52:10;6.23;;;5.73;;
20140;SDS011;10231;47.702;9.826;2022-08-27T04:54:35;6.50;;;5.90;;
20140;SDS011;10231;47.702;9.826;2022-08-27T04:57:02;6.50;;;6.00;;
20140;SDS011;10231;47.702;9.826;2022-08-27T04:59:29;6.77;;;6.17;;
20140;SDS011;10231;47.702;9.826;2022-08-27T05:01:55;6.53;;;5.90;;
20140;SDS011;10231;47.702;9.826;2022-08-27T05:04:21;6.63;;;6.03;;
20140;SDS011;10231;47.702;9.826;2022-08-27T05:06:47;8.27;;;6.30;;
20140;SDS011;10231;47.702;9.826;2022-08-27T05:09:15;6.77;;;6.17;;
20140;SDS011;10231;47.702;9.826;2022-08-27T05:11:41;7.03;;;6.43;;
20140;SDS011;10231;47.702;9.826;2022-08-27T05:14:08;7.10;;;6.50;;
20140;SDS011;10231;47.702;9.826;2022-08-27T05:16:36;7.23;;;6.63;;
20140;SDS011;10231;47.702;9.826;2022-08-27T05:19:03;7.50;;;6.90;;
20140;SDS011;10231;47.702;9.826;2022-08-27T05:21:33;7.00;;;6.40;;
20140;SDS011;10231;47.702;9.826;2022-08-27T05:24:00;7.33;;;6.73;;
20140;SDS011;10231;47.702;9.826;2022-08-27T05:26:28;6.50;;;5.97;;
20140;SDS011;10231;47.702;9.826;2022-08-27T05:28:54;6.60;;;6.10;;
20140;SDS011;10231;47.702;9.826;2022-08-27T05:31:22;6.53;;;5.93;;
20140;SDS011;10231;47.702;9.826;2022-08-27T05:33:48;7.47;;;6.53;;
20140;SDS011;10231;47.702;9.826;2022-08-27T05:36:15;7.13;;;6.53;;
20140;SDS011;10231;47.702;9.826;2022-08-27T05:38:44;8.23;;;7.53;;
20140;SDS011;10231;47.702;9.826;2022-08-27T05:41:14;7.60;;;6.80;;
20140;SDS011;10231;47.702;9.826;2022-08-27T05:43:42;6.47;;;5.87;;
20140;SDS011;10231;47.702;9.826;2022-08-27T05:46:10;7.00;;;6.40;;
20140;SDS011;10231;47.702;9.826;2022-08-27T05:48:37;6.73;;;6.20;;
20140;SDS011;10231;47.702;9.826;2022-08-27T05:53:40;7.93;;;7.20;;
20140;SDS011;10231;47.702;9.826;2022-08-27T05:56:17;7.77;;;6.83;;
20140;SDS011;10231;47.702;9.826;2022-08-27T05:58:45;7.87;;;7.17;;
20140;SDS011;10231;47.702;9.826;2022-08-27T06:01:32;7.27;;;6.67;;
20140;SDS011;10231;47.702;9.826;2022-08-27T06:04:00;6.60;;;6.10;;
20140;SDS011;10231;47.702;9.826;2022-08-27T06:06:26;8.67;;;7.77;;
20140;SDS011;10231;47.702;9.826;2022-08-27T06:08:52;7.90;;;7.10;;
20140;SDS011;10231;47.702;9.826;2022-08-27T06:11:19;8.00;;;7.27;;
20140;SDS011;10231;47.702;9.826;2022-08-27T06:13:46;8.43;;;7.67;;
20140;SDS011;10231;47.702;9.826;2022-08-27T06:16:13;7.67;;;7.00;;
20140;SDS011;10231;47.702;9.826;2022-08-27T06:18:40;7.90;;;7.20;;
20140;SDS011;10231;47.702;9.826;2022-08-27T06:21:09;7.70;;;6.73;;
20140;SDS011;10231;47.702;9.826;2022-08-27T06:23:36;6.57;;;6.07;;
20140;SDS011;10231;47.702;9.826;2022-08-27T06:26:07;6.50;;;5.90;;
20140;SDS011;10231;47.702;9.826;2022-08-27T06:28:35;5.73;;;5.23;;
20140;SDS011;10231;47.702;9.826;2022-08-27T06:31:04;7.07;;;6.47;;
20140;SDS011;10231;47.702;9.826;2022-08-27T06:33:31;6.83;;;6.23;;
20140;SDS011;10231;47.702;9.826;2022-08-27T06:35:58;6.77;;;6.10;;
20140;SDS011;10231;47.702;9.826;2022-08-27T06:38:27;6.90;;;6.30;;
20140;SDS011;10231;47.702;9.826;2022-08-27T06:40:53;6.40;;;5.90;;
20140;SDS011;10231;47.702;9.826;2022-08-27T06:43:20;6.87;;;6.17;;
20140;SDS011;10231;47.702;9.826;2022-08-27T06:45:47;6.00;;;5.50;;
20140;SDS011;10231;47.702;9.826;2022-08-27T06:48:13;6.03;;;5.53;;
20140;SDS011;10231;47.702;9.826;2022-08-27T06:50:39;5.27;;;4.87;;
20140;SDS011;10231;47.702;9.826;2022-08-27T06:53:05;6.07;;;5.30;;
20140;SDS011;10231;47.702;9.826;2022-08-27T06:55:31;5.27;;;4.87;;
20140;SDS011;10231;47.702;9.826;2022-08-27T06:58:03;5.57;;;5.07;;
20140;SDS011;10231;47.702;9.826;2022-08-27T07:00:29;5.40;;;4.77;;
20140;SDS011;10231;47.702;9.826;2022-08-27T07:02:55;5.03;;;4.63;;
20140;SDS011;10231;47.702;9.826;2022-08-27T07:05:20;6.00;;;5.50;;
20140;SDS011;10231;47.702;9.826;2022-08-27T07:07:46;5.20;;;4.80;;
20140;SDS011;10231;47.702;9.826;2022-08-27T07:10:11;4.60;;;4.13;;
20140;SDS011;10231;47.702;9.826;2022-08-27T07:12:37;3.80;;;3.50;;
20140;SDS011;10231;47.702;9.826;2022-08-27T07:15:02;3.83;;;3.53;;
20140;SDS011;10231;47.702;9.826;2022-08-27T07:17:28;4.30;;;4.00;;
20140;SDS011;10231;47.702;9.826;2022-08-27T07:19:54;5.47;;;5.07;;
20140;SDS011;10231;47.702;9.826;2022-08-27T07:22:20;5.10;;;4.70;;
20140;SDS011;10231;47.702;9.826;2022-08-27T07:24:46;5.17;;;4.77;;
20140;SDS011;10231;47.702;9.826;2022-08-27T07:27:11;5.53;;;5.03;;
20140;SDS011;10231;47.702;9.826;2022-08-27T07:29:37;5.63;;;5.23;;
20140;SDS011;10231;47.702;9.826;2022-08-27T07:32:03;5.47;;;4.97;;
20140;SDS011;10231;47.702;9.826;2022-08-27T07:34:29;5.40;;;4.90;;
20140;SDS011;10231;47.702;9.826;2022-08-27T07:36:54;4.73;;;4.37;;
20140;SDS011;10231;47.702;9.826;2022-08-27T07:39:20;5.40;;;5.00;;
20140;SDS011;10231;47.702;9.826;2022-08-27T07:41:45;4.60;;;4.20;;
20140;SDS011;10231;47.702;9.826;2022-08-27T07:44:29;4.73;;;4.40;;
20140;SDS011;10231;47.702;9.826;2022-08-27T07:46:55;4.57;;;4.27;;
20140;SDS011;10231;47.702;9.826;2022-08-27T07:49:23;4.83;;;4.43;;
20140;SDS011;10231;47.702;9.826;2022-08-27T07:51:49;4.37;;;4.07;;
20140;SDS011;10231;47.702;9.826;2022-08-27T07:54:16;4.90;;;4.40;;
20140;SDS011;10231;47.702;9.826;2022-08-27T07:56:42;4.43;;;4.13;;
20140;SDS011;10231;47.702;9.826;2022-08-27T07:59:08;4.63;;;4.33;;
20140;SDS011;10231;47.702;9.826;2022-08-27T08:01:33;4.83;;;4.37;;
20140;SDS011;10231;47.702;9.826;2022-08-27T08:04:00;4.87;;;4.47;;
20140;SDS011;10231;47.702;9.826;2022-08-27T08:06:26;4.23;;;3.93;;
20140;SDS011;10231;47.702;9.826;2022-08-27T08:08:52;4.53;;;4.20;;
20140;SDS011;10231;47.702;9.826;2022-08-27T08:11:18;4.37;;;4.07;;
20140;SDS011;10231;47.702;9.826;2022-08-27T08:13:44;4.27;;;3.97;;
20140;SDS011;10231;47.702;9.826;2022-08-27T08:16:11;3.47;;;3.27;;
20140;SDS011;10231;47.702;9.826;2022-08-27T08:18:37;3.63;;;3.33;;
20140;SDS011;10231;47.702;9.826;2022-08-27T08:21:04;3.30;;;3.00;;
20140;SDS011;10231;47.702;9.826;2022-08-27T08:23:35;4.40;;;3.07;;
20140;SDS011;10231;47.702;9.826;2022-08-27T08:26:01;3.93;;;3.63;;
20140;SDS011;10231;47.702;9.826;2022-08-27T08:28:27;3.10;;;2.60;;
20140;SDS011;10231;47.702;9.826;2022-08-27T08:30:54;2.93;;;2.73;;
20140;SDS011;10231;47.702;9.826;2022-08-27T08:33:20;3.20;;;3.00;;
20140;SDS011;10231;47.702;9.826;2022-08-27T08:35:46;2.90;;;2.57;;
20140;SDS011;10231;47.702;9.826;2022-08-27T08:38:13;2.97;;;2.47;;
20140;SDS011;10231;47.702;9.826;2022-08-27T08:40:41;2.67;;;2.57;;
20140;SDS011;10231;47.702;9.826;2022-08-27T08:48:34;3.03;;;2.83;;
20140;SDS011;10231;47.702;9.826;2022-08-27T08:51:08;3.40;;;3.20;;
20140;SDS011;10231;47.702;9.826;2022-08-27T08:53:57;4.67;;;4.03;;
20140;SDS011;10231;47.702;9.826;2022-08-27T08:58:56;3.87;;;3.57;;
20140;SDS011;10231;47.702;9.826;2022-08-27T09:01:25;3.97;;;3.67;;
20140;SDS011;10231;47.702;9.826;2022-08-27T09:03:53;4.30;;;3.90;;
20140;SDS011;10231;47.702;9.826;2022-08-27T09:09:58;4.60;;;3.97;;
20140;SDS011;10231;47.702;9.826;2022-08-27T09:12:19;4.07;;;3.70;;
20140;SDS011;10231;47.702;9.826;2022-08-27T09:14:52;3.77;;;3.50;;
20140;SDS011;10231;47.702;9.826;2022-08-27T09:17:23;3.67;;;3.37;;
20140;SDS011;10231;47.702;9.826;2022-08-27T09:19:49;4.50;;;3.47;;
20140;SDS011;10231;47.702;9.826;2022-08-27T09:22:18;4.00;;;3.70;;
20140;SDS011;10231;47.702;9.826;2022-08-27T09:25:08;3.00;;;2.80;;
20140;SDS011;10231;47.702;9.826;2022-08-27T09:27:41;3.77;;;3.47;;
20140;SDS011;10231;47.702;9.826;2022-08-27T09:30:09;3.07;;;2.83;;
20140;SDS011;10231;47.702;9.826;2022-08-27T09:32:37;3.33;;;3.13;;
20140;SDS011;10231;47.702;9.826;2022-08-27T09:35:05;3.50;;;3.20;;
20140;SDS011;10231;47.702;9.826;2022-08-27T09:37:41;3.70;;;3.40;;
20140;SDS011;10231;47.702;9.826;2022-08-27T09:40:15;3.13;;;2.93;;
20140;SDS011;10231;47.702;9.826;2022-08-27T09:42:56;4.30;;;3.67;;
20140;SDS011;10231;47.702;9.826;2022-08-27T09:45:29;3.70;;;3.40;;
20140;SDS011;10231;47.702;9.826;2022-08-27T09:50:41;4.40;;;4.00;;
20140;SDS011;10231;47.702;9.826;2022-08-27T09:53:22;5.30;;;4.80;;
20140;SDS011;10231;47.702;9.826;2022-08-27T09:58:23;4.67;;;4.27;;
20140;SDS011;10231;47.702;9.826;2022-08-27T10:01:06;5.47;;;5.00;;
20140;SDS011;10231;47.702;9.826;2022-08-27T10:04:02;5.57;;;4.93;;
20140;SDS011;10231;47.702;9.826;2022-08-27T10:06:36;5.50;;;5.00;;
20140;SDS011;10231;47.702;9.826;2022-08-27T10:09:14;6.00;;;5.40;;
20140;SDS011;10231;47.702;9.826;2022-08-27T10:11:48;5.70;;;5.20;;
20140;SDS011;10231;47.702;9.826;2022-08-27T10:14:28;7.40;;;5.37;;
20140;SDS011;10231;47.702;9.826;2022-08-27T10:23:02;7.27;;;6.63;;
20140;SDS011;10231;47.702;9.826;2022-08-27T10:31:16;8.00;;;7.20;;
20140;SDS011;10231;47.702;9.826;2022-08-27T10:36:50;8.10;;;7.30;;
20140;SDS011;10231;47.702;9.826;2022-08-27T10:42:36;8.47;;;7.57;;
20140;SDS011;10231;47.702;9.826;2022-08-27T10:56:09;9.10;;;8.27;;
20140;SDS011;10231;47.702;9.826;2022-08-27T10:59:11;9.47;;;8.47;;
20140;SDS011;10231;47.702;9.826;2022-08-27T11:04:41;9.27;;;8.30;;
20140;SDS011;10231;47.702;9.826;2022-08-27T11:07:21;8.87;;;8.07;;
20140;SDS011;10231;47.702;9.826;2022-08-27T11:10:12;10.77;;;8.83;;
20140;SDS011;10231;47.702;9.826;2022-08-27T11:12:48;9.37;;;8.40;;
20140;SDS011;10231;47.702;9.826;2022-08-27T11:15:20;9.47;;;8.57;;
20140;SDS011;10231;47.702;9.826;2022-08-27T11:18:06;8.37;;;7.60;;
20140;SDS011;10231;47.702;9.826;2022-08-27T11:23:57;9.67;;;8.87;;
20140;SDS011;10231;47.702;9.826;2022-08-27T11:26:43;8.73;;;7.90;;
20140;SDS011;10231;47.702;9.826;2022-08-27T11:29:24;10.00;;;8.13;;
20140;SDS011;10231;47.702;9.826;2022-08-27T11:34:54;8.53;;;7.77;;
20140;SDS011;10231;47.702;9.826;2022-08-27T11:40:43;9.30;;;8.23;;
20140;SDS011;10231;47.702;9.826;2022-08-27T11:43:23;8.23;;;7.43;;
20140;SDS011;10231;47.702;9.826;2022-08-27T11:45:58;8.77;;;7.93;;
20140;SDS011;10231;47.702;9.826;2022-08-27T11:48:27;10.47;;;9.47;;
20140;SDS011;10231;47.702;9.826;2022-08-27T11:51:09;10.03;;;9.13;;
20140;SDS011;10231;47.702;9.826;2022-08-27T11:53:56;9.80;;;7.87;;
20140;SDS011;10231;47.702;9.826;2022-08-27T12:02:09;9.97;;;8.97;;
20140;SDS011;10231;47.702;9.826;2022-08-27T12:04:38;9.17;;;8.27;;
20140;SDS011;10231;47.702;9.826;2022-08-27T12:07:06;9.43;;;8.53;;
20140;SDS011;10231;47.702;9.826;2022-08-27T12:15:54;8.00;;;7.20;;
20140;SDS011;10231;47.702;9.826;2022-08-27T12:21:24;10.50;;;9.40;;
20140;SDS011;10231;47.702;9.826;2022-08-27T12:26:30;9.57;;;8.40;;
20140;SDS011;10231;47.702;9.826;2022-08-27T12:31:47;9.93;;;9.00;;
20140;SDS011;10231;47.702;9.826;2022-08-27T12:34:18;10.03;;;8.97;;
20140;SDS011;10231;47.702;9.826;2022-08-27T12:36:48;9.77;;;8.83;;
20140;SDS011;10231;47.702;9.826;2022-08-27T12:39:18;10.27;;;8.63;;
20140;SDS011;10231;47.702;9.826;2022-08-27T12:41:54;9.73;;;8.73;;
20140;SDS011;10231;47.702;9.826;2022-08-27T12:44:25;9.20;;;8.30;;
20140;SDS011;10231;47.702;9.826;2022-08-27T12:47:00;10.53;;;9.53;;
20140;SDS011;10231;47.702;9.826;2022-08-27T12:49:31;10.20;;;9.23;;
20140;SDS011;10231;47.702;9.826;2022-08-27T12:52:53;10.20;;;9.20;;
20140;SDS011;10231;47.702;9.826;2022-08-27T12:55:21;10.83;;;9.73;;
20140;SDS011;10231;47.702;9.826;2022-08-27T12:58:10;10.30;;;9.30;;
20140;SDS011;10231;47.702;9.826;2022-08-27T13:00:46;10.30;;;9.20;;
20140;SDS011;10231;47.702;9.826;2022-08-27T13:03:38;9.47;;;8.47;;
20140;SDS011;10231;47.702;9.826;2022-08-27T13:06:16;9.73;;;8.83;;
20140;SDS011;10231;47.702;9.826;2022-08-27T13:08:45;9.70;;;8.70;;
20140;SDS011;10231;47.702;9.826;2022-08-27T13:13:51;10.03;;;9.03;;
20140;SDS011;10231;47.702;9.826;2022-08-27T13:16:27;13.37;;;9.80;;
20140;SDS011;10231;47.702;9.826;2022-08-27T13:18:54;10.17;;;9.17;;
20140;SDS011;10231;47.702;9.826;2022-08-27T13:21:27;10.17;;;9.07;;
20140;SDS011;10231;47.702;9.826;2022-08-27T13:23:56;12.53;;;11.23;;
20140;SDS011;10231;47.702;9.826;2022-08-27T13:26:24;13.00;;;10.23;;
20140;SDS011;10231;47.702;9.826;2022-08-27T13:28:53;10.80;;;9.43;;
20140;SDS011;10231;47.702;9.826;2022-08-27T13:31:20;13.30;;;11.23;;
20140;SDS011;10231;47.702;9.826;2022-08-27T13:33:47;13.20;;;11.63;;
20140;SDS011;10231;47.702;9.826;2022-08-27T13:36:23;12.97;;;11.27;;
20140;SDS011;10231;47.702;9.826;2022-08-27T13:38:53;13.30;;;12.00;;
20140;SDS011;10231;47.702;9.826;2022-08-27T13:41:30;16.73;;;12.50;;
20140;SDS011;10231;47.702;9.826;2022-08-27T13:44:04;15.37;;;12.73;;
20140;SDS011;10231;47.702;9.826;2022-08-27T13:46:41;15.43;;;13.83;;
20140;SDS011;10231;47.702;9.826;2022-08-27T13:49:19;19.27;;;16.20;;
20140;SDS011;10231;47.702;9.826;2022-08-27T13:51:46;19.80;;;16.67;;
20140;SDS011;10231;47.702;9.826;2022-08-27T13:54:14;20.37;;;16.73;;
20140;SDS011;10231;47.702;9.826;2022-08-27T13:59:12;19.83;;;16.60;;
20140;SDS011;10231;47.702;9.826;2022-08-27T14:02:03;18.30;;;14.60;;
20140;SDS011;10231;47.702;9.826;2022-08-27T14:05:02;10.47;;;9.47;;
20140;SDS011;10231;47.702;9.826;2022-08-27T14:07:45;11.10;;;8.80;;
20140;SDS011;10231;47.702;9.826;2022-08-27T14:12:42;9.60;;;8.33;;
20140;SDS011;10231;47.702;9.826;2022-08-27T14:15:33;10.43;;;8.43;;
20140;SDS011;10231;47.702;9.826;2022-08-27T14:18:01;10.43;;;7.87;;
20140;SDS011;10231;47.702;9.826;2022-08-27T14:20:28;8.27;;;7.47;;
20140;SDS011;10231;47.702;9.826;2022-08-27T14:22:53;8.67;;;7.77;;
20140;SDS011;10231;47.702;9.826;2022-08-27T14:25:20;7.87;;;7.17;;
20140;SDS011;10231;47.702;9.826;2022-08-27T14:27:46;10.67;;;7.00;;
20140;SDS011;10231;47.702;9.826;2022-08-27T14:30:16;7.33;;;6.63;;
20140;SDS011;10231;47.702;9.826;2022-08-27T14:32:42;5.83;;;5.33;;
20140;SDS011;10231;47.702;9.826;2022-08-27T14:35:09;7.07;;;6.20;;
20140;SDS011;10231;47.702;9.826;2022-08-27T14:37:35;5.90;;;5.30;;
20140;SDS011;10231;47.702;9.826;2022-08-27T14:40:02;5.57;;;5.07;;
20140;SDS011;10231;47.702;9.826;2022-08-27T14:42:28;7.23;;;6.53;;
20140;SDS011;10231;47.702;9.826;2022-08-27T14:44:54;6.37;;;5.77;;
20140;SDS011;10231;47.702;9.826;2022-08-27T14:47:19;7.07;;;5.63;;
20140;SDS011;10231;47.702;9.826;2022-08-27T14:49:45;6.40;;;5.90;;
20140;SDS011;10231;47.702;9.826;2022-08-27T14:52:11;7.53;;;6.27;;
20140;SDS011;10231;47.702;9.826;2022-08-27T14:54:38;6.80;;;6.10;;
20140;SDS011;10231;47.702;9.826;2022-08-27T14:57:05;7.33;;;6.63;;
20140;SDS011;10231;47.702;9.826;2022-08-27T14:59:32;7.33;;;6.63;;
20140;SDS011;10231;47.702;9.826;2022-08-27T15:01:59;7.93;;;7.20;;
20140;SDS011;10231;47.702;9.826;2022-08-27T15:04:27;6.77;;;6.17;;
20140;SDS011;10231;47.702;9.826;2022-08-27T15:06:53;8.80;;;7.23;;
20140;SDS011;10231;47.702;9.826;2022-08-27T15:09:19;9.40;;;7.27;;
20140;SDS011;10231;47.702;9.826;2022-08-27T15:11:45;10.37;;;8.40;;
20140;SDS011;10231;47.702;9.826;2022-08-27T15:14:14;10.27;;;7.73;;
20140;SDS011;10231;47.702;9.826;2022-08-27T15:16:45;11.67;;;8.43;;
20140;SDS011;10231;47.702;9.826;2022-08-27T15:19:11;9.13;;;8.23;;
20140;SDS011;10231;47.702;9.826;2022-08-27T15:21:39;8.53;;;7.70;;
20140;SDS011;10231;47.702;9.826;2022-08-27T15:24:24;9.53;;;8.50;;
20140;SDS011;10231;47.702;9.826;2022-08-27T15:26:52;9.97;;;8.97;;
20140;SDS011;10231;47.702;9.826;2022-08-27T15:29:23;10.13;;;8.27;;
20140;SDS011;10231;47.702;9.826;2022-08-27T15:31:50;9.47;;;8.47;;
20140;SDS011;10231;47.702;9.826;2022-08-27T15:34:16;11.13;;;8.33;;
20140;SDS011;10231;47.702;9.826;2022-08-27T15:36:42;11.50;;;9.67;;
20140;SDS011;10231;47.702;9.826;2022-08-27T15:39:08;11.43;;;8.93;;
20140;SDS011;10231;47.702;9.826;2022-08-27T15:41:34;10.47;;;9.20;;
20140;SDS011;10231;47.702;9.826;2022-08-27T15:44:01;9.87;;;8.90;;
20140;SDS011;10231;47.702;9.826;2022-08-27T15:46:28;12.17;;;9.70;;
20140;SDS011;10231;47.702;9.826;2022-08-27T15:48:53;11.97;;;9.73;;
20140;SDS011;10231;47.702;9.826;2022-08-27T15:51:29;12.83;;;10.30;;
20140;SDS011;10231;47.702;9.826;2022-08-27T15:53:57;10.93;;;9.40;;
20140;SDS011;10231;47.702;9.826;2022-08-27T15:56:24;12.07;;;10.10;;
20140;SDS011;10231;47.702;9.826;2022-08-27T15:58:51;13.33;;;9.77;;
20140;SDS011;10231;47.702;9.826;2022-08-27T16:01:19;10.73;;;9.67;;
20140;SDS011;10231;47.702;9.826;2022-08-27T16:03:54;11.47;;;9.67;;
20140;SDS011;10231;47.702;9.826;2022-08-27T16:06:22;11.57;;;10.37;;
20140;SDS011;10231;47.702;9.826;2022-08-27T16:08:48;11.70;;;10.43;;
20140;SDS011;10231;47.702;9.826;2022-08-27T16:11:13;11.83;;;10.63;;
20140;SDS011;10231;47.702;9.826;2022-08-27T16:13:39;11.87;;;10.20;;
20140;SDS011;10231;47.702;9.826;2022-08-27T16:16:06;12.07;;;10.43;;
20140;SDS011;10231;47.702;9.826;2022-08-27T16:18:32;11.60;;;10.37;;
20140;SDS011;10231;47.702;9.826;2022-08-27T16:20:59;11.03;;;9.83;;
20140;SDS011;10231;47.702;9.826;2022-08-27T16:23:27;12.57;;;10.00;;
20140;SDS011;10231;47.702;9.826;2022-08-27T16:25:53;11.27;;;10.03;;
20140;SDS011;10231;47.702;9.826;2022-08-27T16:28:20;11.77;;;10.50;;
20140;SDS011;10231;47.702;9.826;2022-08-27T16:30:46;11.70;;;10.60;;